Ely Municipal Airport
KELO : now visible

Airfield :











YOU CAN JOIN US ON...

 
LOGIN :

Register | Disclaimer

   EN    FR    IT 

 









Legend :    VFR   Marginal VFR   IFR   Intensive IFR   Very Intensive IFR
Visi :
Ceiling :
>= 8 km
>= 3000ft
5 to 8 km
1000 to 3000 ft
1500m to 5 km
500 to 1000 ft
800 to 1500m
200 to 500 ft
< 800m
< 200 ft
Symbols :   Thunderstorms  Fog  Heavy snow  Heavy precipitations  Wind > 20 kt






- Airport Elevation : 1456 ft


KELO - Ely Municipal

CURRENT METAR :
  • 171438Z AUTO 26004KT 1 1/4SM BR OVC002 01/01 A2979 RMK AO2

EXPIRED METARs :
  • 171416Z AUTO 25004KT 1/2SM FG OVC002 01/01 A2979 RMK AO2
  • 171355Z AUTO 24003KT 1 1/4SM BR OVC002 01/01 A2979 RMK AO2
  • 171335Z AUTO 23004KT 1 3/4SM BR OVC004 01/01 A2978 RMK AO2
  • 171317Z AUTO 24003KT 3SM BR OVC004 01/01 A2978 RMK AO2
  • 171300Z AUTO 00000KT 3SM BR OVC004 01/01 A2978 RMK AO2
  • 171255Z AUTO 22004KT 3SM BR OVC004 01/01 A2978 RMK AO2
  • 171236Z AUTO 21003KT 3SM -DZ OVC004 01/01 A2978 RMK AO2
  • 171215Z AUTO 21004KT 3SM -SN OVC004 01/01 A2978 RMK AO2
  • 171156Z AUTO 21003KT 2 1/2SM RA OVC004 01/01 A2979 RMK AO2

TAF N/A



MET'MAP, your aeronautical weather chart ! - Copyright ORBIFLY December 2007 - Disclaimer

ORBIFLY MET'MAP TEAM :

Programming & Development : Alexandra Zaïnal
Concept & Development : Baudouin d'Aumeries
Co-Development & Prog : Marc-Olivier Méhu
Technical & hardware support : Manuel Goepfert

Contact : metmap@orbifly.com




SOURCES & CREDITS :

   NOAA       Earth
Advisory